sensor_id;sensor_type;location;lat;lon;timestamp;P1;durP1;ratioP1;P2;durP2;ratioP2
35558;SDS011;21661;50.794;-1.066;2022-08-19T00:01:53;10.93;;;3.10;;
35558;SDS011;21661;50.794;-1.066;2022-08-19T00:04:22;8.35;;;3.08;;
35558;SDS011;21661;50.794;-1.066;2022-08-19T00:06:51;11.32;;;3.33;;
35558;SDS011;21661;50.794;-1.066;2022-08-19T00:09:17;14.18;;;3.38;;
35558;SDS011;21661;50.794;-1.066;2022-08-19T00:11:45;16.17;;;3.17;;
35558;SDS011;21661;50.794;-1.066;2022-08-19T00:14:12;8.18;;;3.17;;
35558;SDS011;21661;50.794;-1.066;2022-08-19T00:16:40;13.07;;;3.63;;
35558;SDS011;21661;50.794;-1.066;2022-08-19T00:19:08;13.25;;;2.80;;
35558;SDS011;21661;50.794;-1.066;2022-08-19T00:21:34;13.43;;;3.03;;
35558;SDS011;21661;50.794;-1.066;2022-08-19T00:24:05;9.85;;;2.85;;
35558;SDS011;21661;50.794;-1.066;2022-08-19T00:26:32;10.00;;;2.70;;
35558;SDS011;21661;50.794;-1.066;2022-08-19T00:28:58;8.63;;;2.20;;
35558;SDS011;21661;50.794;-1.066;2022-08-19T00:31:25;7.85;;;2.58;;
35558;SDS011;21661;50.794;-1.066;2022-08-19T00:33:53;16.10;;;2.65;;
35558;SDS011;21661;50.794;-1.066;2022-08-19T00:36:19;8.15;;;2.50;;
35558;SDS011;21661;50.794;-1.066;2022-08-19T00:38:45;6.35;;;2.15;;
35558;SDS011;21661;50.794;-1.066;2022-08-19T00:41:15;8.60;;;2.72;;
35558;SDS011;21661;50.794;-1.066;2022-08-19T00:43:56;10.50;;;2.50;;
35558;SDS011;21661;50.794;-1.066;2022-08-19T00:46:30;10.40;;;2.30;;
35558;SDS011;21661;50.794;-1.066;2022-08-19T00:48:57;8.80;;;2.60;;
35558;SDS011;21661;50.794;-1.066;2022-08-19T00:51:26;7.30;;;2.05;;
35558;SDS011;21661;50.794;-1.066;2022-08-19T00:53:54;6.60;;;2.38;;
35558;SDS011;21661;50.794;-1.066;2022-08-19T00:56:21;11.75;;;2.65;;
35558;SDS011;21661;50.794;-1.066;2022-08-19T00:58:48;7.85;;;2.05;;
35558;SDS011;21661;50.794;-1.066;2022-08-19T01:01:14;6.28;;;2.35;;
35558;SDS011;21661;50.794;-1.066;2022-08-19T01:03:40;8.38;;;2.63;;
35558;SDS011;21661;50.794;-1.066;2022-08-19T01:06:06;5.72;;;2.00;;
35558;SDS011;21661;50.794;-1.066;2022-08-19T01:08:32;12.45;;;2.45;;
35558;SDS011;21661;50.794;-1.066;2022-08-19T01:10:59;11.05;;;2.70;;
35558;SDS011;21661;50.794;-1.066;2022-08-19T01:13:28;8.40;;;2.58;;
35558;SDS011;21661;50.794;-1.066;2022-08-19T01:15:58;8.95;;;2.53;;
35558;SDS011;21661;50.794;-1.066;2022-08-19T01:18:30;10.15;;;2.42;;
35558;SDS011;21661;50.794;-1.066;2022-08-19T01:21:01;13.88;;;2.83;;
35558;SDS011;21661;50.794;-1.066;2022-08-19T01:23:30;8.35;;;2.17;;
35558;SDS011;21661;50.794;-1.066;2022-08-19T01:26:09;11.30;;;2.78;;
35558;SDS011;21661;50.794;-1.066;2022-08-19T01:28:44;9.07;;;2.88;;
35558;SDS011;21661;50.794;-1.066;2022-08-19T01:31:18;9.15;;;3.13;;
35558;SDS011;21661;50.794;-1.066;2022-08-19T01:33:47;12.90;;;2.88;;
35558;SDS011;21661;50.794;-1.066;2022-08-19T01:36:14;10.60;;;3.05;;
35558;SDS011;21661;50.794;-1.066;2022-08-19T01:39:03;9.93;;;2.78;;
35558;SDS011;21661;50.794;-1.066;2022-08-19T01:41:32;8.65;;;2.83;;
35558;SDS011;21661;50.794;-1.066;2022-08-19T01:43:58;10.00;;;2.40;;
35558;SDS011;21661;50.794;-1.066;2022-08-19T01:46:26;7.85;;;2.20;;
35558;SDS011;21661;50.794;-1.066;2022-08-19T01:48:51;9.88;;;3.17;;
35558;SDS011;21661;50.794;-1.066;2022-08-19T01:51:17;6.45;;;2.78;;
35558;SDS011;21661;50.794;-1.066;2022-08-19T01:53:43;10.32;;;2.65;;
35558;SDS011;21661;50.794;-1.066;2022-08-19T01:56:13;6.50;;;2.20;;
35558;SDS011;21661;50.794;-1.066;2022-08-19T01:58:40;7.30;;;1.88;;
35558;SDS011;21661;50.794;-1.066;2022-08-19T02:01:11;10.60;;;1.95;;
35558;SDS011;21661;50.794;-1.066;2022-08-19T02:03:37;8.52;;;2.10;;
35558;SDS011;21661;50.794;-1.066;2022-08-19T02:06:03;6.20;;;1.83;;
35558;SDS011;21661;50.794;-1.066;2022-08-19T02:08:30;5.22;;;2.10;;
35558;SDS011;21661;50.794;-1.066;2022-08-19T02:10:57;6.75;;;2.08;;
35558;SDS011;21661;50.794;-1.066;2022-08-19T02:13:23;6.47;;;2.55;;
35558;SDS011;21661;50.794;-1.066;2022-08-19T02:15:49;7.15;;;2.47;;
35558;SDS011;21661;50.794;-1.066;2022-08-19T02:18:15;5.78;;;2.35;;
35558;SDS011;21661;50.794;-1.066;2022-08-19T02:20:42;12.13;;;2.60;;
35558;SDS011;21661;50.794;-1.066;2022-08-19T02:23:08;8.77;;;2.35;;
35558;SDS011;21661;50.794;-1.066;2022-08-19T02:25:36;11.70;;;2.42;;
35558;SDS011;21661;50.794;-1.066;2022-08-19T02:28:03;4.78;;;1.90;;
35558;SDS011;21661;50.794;-1.066;2022-08-19T02:30:29;9.25;;;2.38;;
35558;SDS011;21661;50.794;-1.066;2022-08-19T02:32:55;7.70;;;2.45;;
35558;SDS011;21661;50.794;-1.066;2022-08-19T02:35:21;8.20;;;2.40;;
35558;SDS011;21661;50.794;-1.066;2022-08-19T02:37:47;5.88;;;2.47;;
35558;SDS011;21661;50.794;-1.066;2022-08-19T02:40:32;8.40;;;2.50;;
35558;SDS011;21661;50.794;-1.066;2022-08-19T02:43:01;5.88;;;2.28;;
35558;SDS011;21661;50.794;-1.066;2022-08-19T02:45:34;8.85;;;2.38;;
35558;SDS011;21661;50.794;-1.066;2022-08-19T02:50:27;12.45;;;2.97;;
35558;SDS011;21661;50.794;-1.066;2022-08-19T02:52:53;6.18;;;2.40;;
35558;SDS011;21661;50.794;-1.066;2022-08-19T02:55:19;8.30;;;2.63;;
35558;SDS011;21661;50.794;-1.066;2022-08-19T02:57:46;6.18;;;2.40;;
35558;SDS011;21661;50.794;-1.066;2022-08-19T03:00:12;7.93;;;2.50;;
35558;SDS011;21661;50.794;-1.066;2022-08-19T03:02:38;8.10;;;2.40;;
35558;SDS011;21661;50.794;-1.066;2022-08-19T03:05:05;10.68;;;3.38;;
35558;SDS011;21661;50.794;-1.066;2022-08-19T03:07:32;10.82;;;2.65;;
35558;SDS011;21661;50.794;-1.066;2022-08-19T03:09:58;12.13;;;3.03;;
35558;SDS011;21661;50.794;-1.066;2022-08-19T03:12:24;11.32;;;2.55;;
35558;SDS011;21661;50.794;-1.066;2022-08-19T03:14:50;9.98;;;3.05;;
35558;SDS011;21661;50.794;-1.066;2022-08-19T03:17:16;9.60;;;2.75;;
35558;SDS011;21661;50.794;-1.066;2022-08-19T03:19:42;10.82;;;3.03;;
35558;SDS011;21661;50.794;-1.066;2022-08-19T03:22:08;8.40;;;2.60;;
35558;SDS011;21661;50.794;-1.066;2022-08-19T03:24:34;10.63;;;2.65;;
35558;SDS011;21661;50.794;-1.066;2022-08-19T03:27:01;14.27;;;3.15;;
35558;SDS011;21661;50.794;-1.066;2022-08-19T03:29:30;10.23;;;3.17;;
35558;SDS011;21661;50.794;-1.066;2022-08-19T03:32:00;13.93;;;3.28;;
35558;SDS011;21661;50.794;-1.066;2022-08-19T03:34:30;12.23;;;3.40;;
35558;SDS011;21661;50.794;-1.066;2022-08-19T03:36:58;15.07;;;2.92;;
35558;SDS011;21661;50.794;-1.066;2022-08-19T03:39:25;10.65;;;3.08;;
35558;SDS011;21661;50.794;-1.066;2022-08-19T03:41:52;11.10;;;3.35;;
35558;SDS011;21661;50.794;-1.066;2022-08-19T03:44:22;13.50;;;3.30;;
35558;SDS011;21661;50.794;-1.066;2022-08-19T03:46:49;13.57;;;3.90;;
35558;SDS011;21661;50.794;-1.066;2022-08-19T03:49:17;12.57;;;3.72;;
35558;SDS011;21661;50.794;-1.066;2022-08-19T03:51:43;15.57;;;3.97;;
35558;SDS011;21661;50.794;-1.066;2022-08-19T03:54:11;14.45;;;3.78;;
35558;SDS011;21661;50.794;-1.066;2022-08-19T03:56:38;14.70;;;3.78;;
35558;SDS011;21661;50.794;-1.066;2022-08-19T03:59:06;15.48;;;3.40;;
35558;SDS011;21661;50.794;-1.066;2022-08-19T04:01:36;18.37;;;5.00;;
35558;SDS011;21661;50.794;-1.066;2022-08-19T04:04:02;15.95;;;3.78;;
35558;SDS011;21661;50.794;-1.066;2022-08-19T04:06:30;11.95;;;3.40;;
35558;SDS011;21661;50.794;-1.066;2022-08-19T04:09:01;15.23;;;3.78;;
35558;SDS011;21661;50.794;-1.066;2022-08-19T04:11:41;24.35;;;4.18;;
35558;SDS011;21661;50.794;-1.066;2022-08-19T04:14:09;16.88;;;3.53;;
35558;SDS011;21661;50.794;-1.066;2022-08-19T04:19:06;15.43;;;3.83;;
35558;SDS011;21661;50.794;-1.066;2022-08-19T04:21:32;11.10;;;3.20;;
35558;SDS011;21661;50.794;-1.066;2022-08-19T04:23:59;12.05;;;3.22;;
35558;SDS011;21661;50.794;-1.066;2022-08-19T04:26:27;12.10;;;3.03;;
35558;SDS011;21661;50.794;-1.066;2022-08-19T04:28:57;16.13;;;3.42;;
35558;SDS011;21661;50.794;-1.066;2022-08-19T04:31:25;14.90;;;3.35;;
35558;SDS011;21661;50.794;-1.066;2022-08-19T04:33:53;18.55;;;3.75;;
35558;SDS011;21661;50.794;-1.066;2022-08-19T04:38:53;18.15;;;4.22;;
35558;SDS011;21661;50.794;-1.066;2022-08-19T04:41:21;15.77;;;3.42;;
35558;SDS011;21661;50.794;-1.066;2022-08-19T04:44:06;12.60;;;3.13;;
35558;SDS011;21661;50.794;-1.066;2022-08-19T04:46:32;11.90;;;3.15;;
35558;SDS011;21661;50.794;-1.066;2022-08-19T04:48:58;16.42;;;3.47;;
35558;SDS011;21661;50.794;-1.066;2022-08-19T04:51:25;15.02;;;3.78;;
35558;SDS011;21661;50.794;-1.066;2022-08-19T04:53:51;15.40;;;3.60;;
35558;SDS011;21661;50.794;-1.066;2022-08-19T04:56:18;10.43;;;3.08;;
35558;SDS011;21661;50.794;-1.066;2022-08-19T04:58:47;12.90;;;3.55;;
35558;SDS011;21661;50.794;-1.066;2022-08-19T05:01:20;16.33;;;2.72;;
35558;SDS011;21661;50.794;-1.066;2022-08-19T05:03:51;13.70;;;3.25;;
35558;SDS011;21661;50.794;-1.066;2022-08-19T05:06:18;13.70;;;3.25;;
35558;SDS011;21661;50.794;-1.066;2022-08-19T05:08:46;14.02;;;3.47;;
35558;SDS011;21661;50.794;-1.066;2022-08-19T05:13:40;15.32;;;3.28;;
35558;SDS011;21661;50.794;-1.066;2022-08-19T05:16:08;11.32;;;3.00;;
35558;SDS011;21661;50.794;-1.066;2022-08-19T05:18:36;16.23;;;3.28;;
35558;SDS011;21661;50.794;-1.066;2022-08-19T05:21:21;8.80;;;3.25;;
35558;SDS011;21661;50.794;-1.066;2022-08-19T05:24:06;13.02;;;2.85;;
35558;SDS011;21661;50.794;-1.066;2022-08-19T05:26:34;13.27;;;3.53;;
35558;SDS011;21661;50.794;-1.066;2022-08-19T05:29:04;15.38;;;3.42;;
35558;SDS011;21661;50.794;-1.066;2022-08-19T05:31:32;18.23;;;4.15;;
35558;SDS011;21661;50.794;-1.066;2022-08-19T05:33:58;7.82;;;3.03;;
35558;SDS011;21661;50.794;-1.066;2022-08-19T05:36:25;14.95;;;3.10;;
35558;SDS011;21661;50.794;-1.066;2022-08-19T05:38:52;15.77;;;3.08;;
35558;SDS011;21661;50.794;-1.066;2022-08-19T05:41:18;16.52;;;3.88;;
35558;SDS011;21661;50.794;-1.066;2022-08-19T05:43:45;10.45;;;3.08;;
35558;SDS011;21661;50.794;-1.066;2022-08-19T05:46:20;13.43;;;3.15;;
35558;SDS011;21661;50.794;-1.066;2022-08-19T05:48:47;15.57;;;3.55;;
35558;SDS011;21661;50.794;-1.066;2022-08-19T05:51:13;14.50;;;2.83;;
35558;SDS011;21661;50.794;-1.066;2022-08-19T05:53:41;10.30;;;2.90;;
35558;SDS011;21661;50.794;-1.066;2022-08-19T05:56:08;12.77;;;2.67;;
35558;SDS011;21661;50.794;-1.066;2022-08-19T05:58:37;14.30;;;2.85;;
35558;SDS011;21661;50.794;-1.066;2022-08-19T06:01:04;11.60;;;3.10;;
35558;SDS011;21661;50.794;-1.066;2022-08-19T06:03:35;11.95;;;2.58;;
35558;SDS011;21661;50.794;-1.066;2022-08-19T06:06:02;12.95;;;3.72;;
35558;SDS011;21661;50.794;-1.066;2022-08-19T06:08:30;9.40;;;2.42;;
35558;SDS011;21661;50.794;-1.066;2022-08-19T06:10:56;10.60;;;2.80;;
35558;SDS011;21661;50.794;-1.066;2022-08-19T06:13:22;11.43;;;2.78;;
35558;SDS011;21661;50.794;-1.066;2022-08-19T06:15:49;17.45;;;3.83;;
35558;SDS011;21661;50.794;-1.066;2022-08-19T06:18:15;12.73;;;2.53;;
35558;SDS011;21661;50.794;-1.066;2022-08-19T06:20:41;11.55;;;2.72;;
35558;SDS011;21661;50.794;-1.066;2022-08-19T06:23:08;8.52;;;2.65;;
35558;SDS011;21661;50.794;-1.066;2022-08-19T06:25:34;12.00;;;2.28;;
35558;SDS011;21661;50.794;-1.066;2022-08-19T06:28:00;12.32;;;2.15;;
35558;SDS011;21661;50.794;-1.066;2022-08-19T06:30:26;11.63;;;2.00;;
35558;SDS011;21661;50.794;-1.066;2022-08-19T06:32:52;8.38;;;2.08;;
35558;SDS011;21661;50.794;-1.066;2022-08-19T06:35:18;12.80;;;2.65;;
35558;SDS011;21661;50.794;-1.066;2022-08-19T06:37:44;11.10;;;2.78;;
35558;SDS011;21661;50.794;-1.066;2022-08-19T06:40:10;9.00;;;2.35;;
35558;SDS011;21661;50.794;-1.066;2022-08-19T06:42:37;7.90;;;1.85;;
35558;SDS011;21661;50.794;-1.066;2022-08-19T06:45:04;9.65;;;2.53;;
35558;SDS011;21661;50.794;-1.066;2022-08-19T06:47:33;10.35;;;2.15;;
35558;SDS011;21661;50.794;-1.066;2022-08-19T06:49:59;7.03;;;2.08;;
35558;SDS011;21661;50.794;-1.066;2022-08-19T06:52:31;3.47;;;1.08;;
35558;SDS011;21661;50.794;-1.066;2022-08-19T06:55:00;2.80;;;0.70;;
35558;SDS011;21661;50.794;-1.066;2022-08-19T06:57:26;3.60;;;1.25;;
35558;SDS011;21661;50.794;-1.066;2022-08-19T06:59:57;4.25;;;1.02;;
35558;SDS011;21661;50.794;-1.066;2022-08-19T07:02:25;3.55;;;1.30;;
35558;SDS011;21661;50.794;-1.066;2022-08-19T07:04:51;3.78;;;1.10;;
35558;SDS011;21661;50.794;-1.066;2022-08-19T07:07:18;4.78;;;1.10;;
35558;SDS011;21661;50.794;-1.066;2022-08-19T07:09:45;3.83;;;0.98;;
35558;SDS011;21661;50.794;-1.066;2022-08-19T07:12:12;1.98;;;0.88;;
35558;SDS011;21661;50.794;-1.066;2022-08-19T07:14:40;5.07;;;1.40;;
35558;SDS011;21661;50.794;-1.066;2022-08-19T07:17:09;2.88;;;1.25;;
35558;SDS011;21661;50.794;-1.066;2022-08-19T07:19:38;2.50;;;1.13;;
35558;SDS011;21661;50.794;-1.066;2022-08-19T07:22:05;4.43;;;1.08;;
35558;SDS011;21661;50.794;-1.066;2022-08-19T07:24:32;3.13;;;1.20;;
35558;SDS011;21661;50.794;-1.066;2022-08-19T07:26:59;4.88;;;1.20;;
35558;SDS011;21661;50.794;-1.066;2022-08-19T07:29:27;3.08;;;1.40;;
35558;SDS011;21661;50.794;-1.066;2022-08-19T07:31:55;4.97;;;1.60;;
35558;SDS011;21661;50.794;-1.066;2022-08-19T07:34:24;3.88;;;1.50;;
35558;SDS011;21661;50.794;-1.066;2022-08-19T07:36:51;4.13;;;1.38;;
35558;SDS011;21661;50.794;-1.066;2022-08-19T07:39:18;5.55;;;1.80;;
35558;SDS011;21661;50.794;-1.066;2022-08-19T07:41:47;4.22;;;2.00;;
35558;SDS011;21661;50.794;-1.066;2022-08-19T07:44:16;3.33;;;1.30;;
35558;SDS011;21661;50.794;-1.066;2022-08-19T07:46:44;3.13;;;1.42;;
35558;SDS011;21661;50.794;-1.066;2022-08-19T07:49:13;3.78;;;1.50;;
35558;SDS011;21661;50.794;-1.066;2022-08-19T07:51:45;3.30;;;1.40;;
35558;SDS011;21661;50.794;-1.066;2022-08-19T07:54:13;4.85;;;2.15;;
35558;SDS011;21661;50.794;-1.066;2022-08-19T07:56:39;5.00;;;1.77;;
35558;SDS011;21661;50.794;-1.066;2022-08-19T07:59:05;2.95;;;1.50;;
35558;SDS011;21661;50.794;-1.066;2022-08-19T08:01:31;3.85;;;1.00;;
35558;SDS011;21661;50.794;-1.066;2022-08-19T08:03:57;3.03;;;1.10;;
35558;SDS011;21661;50.794;-1.066;2022-08-19T08:06:42;7.03;;;1.67;;
35558;SDS011;21661;50.794;-1.066;2022-08-19T08:09:31;6.35;;;2.80;;
35558;SDS011;21661;50.794;-1.066;2022-08-19T08:12:03;6.25;;;2.15;;
35558;SDS011;21661;50.794;-1.066;2022-08-19T08:14:52;8.13;;;2.83;;
35558;SDS011;21661;50.794;-1.066;2022-08-19T08:17:29;6.38;;;2.40;;
35558;SDS011;21661;50.794;-1.066;2022-08-19T08:19:57;6.30;;;1.88;;
35558;SDS011;21661;50.794;-1.066;2022-08-19T08:22:22;5.25;;;2.15;;
35558;SDS011;21661;50.794;-1.066;2022-08-19T08:25:15;6.88;;;2.20;;
35558;SDS011;21661;50.794;-1.066;2022-08-19T08:27:44;5.18;;;1.95;;
35558;SDS011;21661;50.794;-1.066;2022-08-19T08:30:12;6.57;;;2.63;;
35558;SDS011;21661;50.794;-1.066;2022-08-19T08:32:41;10.53;;;3.17;;
35558;SDS011;21661;50.794;-1.066;2022-08-19T08:35:09;7.78;;;2.65;;
35558;SDS011;21661;50.794;-1.066;2022-08-19T08:37:37;7.85;;;3.00;;
35558;SDS011;21661;50.794;-1.066;2022-08-19T08:40:09;11.38;;;2.70;;
35558;SDS011;21661;50.794;-1.066;2022-08-19T08:42:49;9.10;;;2.65;;
35558;SDS011;21661;50.794;-1.066;2022-08-19T08:45:25;7.03;;;3.00;;
35558;SDS011;21661;50.794;-1.066;2022-08-19T08:47:52;7.63;;;2.50;;
35558;SDS011;21661;50.794;-1.066;2022-08-19T08:50:34;10.95;;;3.03;;
35558;SDS011;21661;50.794;-1.066;2022-08-19T08:53:07;8.88;;;3.70;;
35558;SDS011;21661;50.794;-1.066;2022-08-19T08:55:35;8.30;;;3.30;;
35558;SDS011;21661;50.794;-1.066;2022-08-19T08:58:05;10.48;;;3.50;;
35558;SDS011;21661;50.794;-1.066;2022-08-19T09:00:43;10.88;;;3.50;;
35558;SDS011;21661;50.794;-1.066;2022-08-19T09:06:01;14.57;;;3.63;;
35558;SDS011;21661;50.794;-1.066;2022-08-19T09:11:07;13.43;;;3.50;;
35558;SDS011;21661;50.794;-1.066;2022-08-19T09:16:25;12.77;;;4.38;;
35558;SDS011;21661;50.794;-1.066;2022-08-19T09:18:54;13.52;;;4.07;;
35558;SDS011;21661;50.794;-1.066;2022-08-19T09:21:23;13.90;;;3.95;;
35558;SDS011;21661;50.794;-1.066;2022-08-19T09:23:50;11.93;;;3.95;;
35558;SDS011;21661;50.794;-1.066;2022-08-19T09:26:18;11.27;;;4.00;;
35558;SDS011;21661;50.794;-1.066;2022-08-19T09:28:46;11.43;;;4.05;;
35558;SDS011;21661;50.794;-1.066;2022-08-19T09:31:14;9.98;;;2.90;;
35558;SDS011;21661;50.794;-1.066;2022-08-19T09:33:50;10.85;;;3.08;;
35558;SDS011;21661;50.794;-1.066;2022-08-19T09:36:18;13.82;;;2.88;;
35558;SDS011;21661;50.794;-1.066;2022-08-19T09:38:47;6.90;;;2.40;;
35558;SDS011;21661;50.794;-1.066;2022-08-19T09:41:14;8.90;;;2.90;;
35558;SDS011;21661;50.794;-1.066;2022-08-19T09:43:44;9.65;;;3.13;;
35558;SDS011;21661;50.794;-1.066;2022-08-19T09:46:11;10.30;;;2.40;;
35558;SDS011;21661;50.794;-1.066;2022-08-19T09:48:38;11.40;;;2.72;;
35558;SDS011;21661;50.794;-1.066;2022-08-19T09:51:10;7.68;;;2.72;;
35558;SDS011;21661;50.794;-1.066;2022-08-19T09:53:40;12.80;;;2.58;;
35558;SDS011;21661;50.794;-1.066;2022-08-19T09:56:07;11.18;;;2.70;;
35558;SDS011;21661;50.794;-1.066;2022-08-19T09:58:33;10.07;;;2.83;;
35558;SDS011;21661;50.794;-1.066;2022-08-19T10:00:59;8.10;;;3.28;;
35558;SDS011;21661;50.794;-1.066;2022-08-19T10:03:27;12.60;;;3.15;;
35558;SDS011;21661;50.794;-1.066;2022-08-19T10:05:54;9.10;;;3.20;;
35558;SDS011;21661;50.794;-1.066;2022-08-19T10:08:24;12.15;;;3.25;;
35558;SDS011;21661;50.794;-1.066;2022-08-19T10:10:53;9.93;;;3.75;;
35558;SDS011;21661;50.794;-1.066;2022-08-19T10:13:21;11.25;;;3.42;;
35558;SDS011;21661;50.794;-1.066;2022-08-19T10:15:50;10.13;;;3.60;;
35558;SDS011;21661;50.794;-1.066;2022-08-19T10:18:17;13.50;;;4.40;;
35558;SDS011;21661;50.794;-1.066;2022-08-19T10:20:45;13.15;;;4.28;;
35558;SDS011;21661;50.794;-1.066;2022-08-19T10:23:13;12.43;;;4.32;;
35558;SDS011;21661;50.794;-1.066;2022-08-19T10:25:40;14.80;;;4.70;;
35558;SDS011;21661;50.794;-1.066;2022-08-19T10:28:07;14.90;;;4.53;;
35558;SDS011;21661;50.794;-1.066;2022-08-19T10:30:37;16.67;;;4.78;;
35558;SDS011;21661;50.794;-1.066;2022-08-19T10:33:04;13.75;;;4.50;;
35558;SDS011;21661;50.794;-1.066;2022-08-19T10:35:30;11.80;;;3.40;;
35558;SDS011;21661;50.794;-1.066;2022-08-19T10:37:57;10.40;;;4.05;;
35558;SDS011;21661;50.794;-1.066;2022-08-19T10:40:25;12.55;;;3.85;;
35558;SDS011;21661;50.794;-1.066;2022-08-19T10:42:52;11.05;;;3.08;;
35558;SDS011;21661;50.794;-1.066;2022-08-19T10:45:20;11.55;;;3.65;;
35558;SDS011;21661;50.794;-1.066;2022-08-19T10:47:52;8.50;;;2.65;;
35558;SDS011;21661;50.794;-1.066;2022-08-19T10:50:18;10.43;;;2.47;;
35558;SDS011;21661;50.794;-1.066;2022-08-19T10:53:04;9.00;;;2.72;;
35558;SDS011;21661;50.794;-1.066;2022-08-19T10:55:34;7.82;;;2.40;;
35558;SDS011;21661;50.794;-1.066;2022-08-19T10:58:19;7.80;;;2.30;;
35558;SDS011;21661;50.794;-1.066;2022-08-19T11:01:05;9.43;;;2.20;;
35558;SDS011;21661;50.794;-1.066;2022-08-19T11:03:31;8.25;;;1.98;;
35558;SDS011;21661;50.794;-1.066;2022-08-19T11:05:58;9.63;;;2.53;;
35558;SDS011;21661;50.794;-1.066;2022-08-19T11:08:29;10.80;;;2.75;;
35558;SDS011;21661;50.794;-1.066;2022-08-19T11:10:58;8.68;;;2.65;;
35558;SDS011;21661;50.794;-1.066;2022-08-19T11:13:30;9.48;;;2.30;;
35558;SDS011;21661;50.794;-1.066;2022-08-19T11:16:18;10.18;;;2.60;;
35558;SDS011;21661;50.794;-1.066;2022-08-19T11:18:48;7.68;;;2.53;;
35558;SDS011;21661;50.794;-1.066;2022-08-19T11:23:50;9.65;;;2.33;;
35558;SDS011;21661;50.794;-1.066;2022-08-19T11:26:17;12.80;;;2.70;;
35558;SDS011;21661;50.794;-1.066;2022-08-19T11:28:45;9.13;;;2.28;;
35558;SDS011;21661;50.794;-1.066;2022-08-19T11:31:18;14.68;;;2.85;;
35558;SDS011;21661;50.794;-1.066;2022-08-19T11:33:46;12.00;;;2.53;;
35558;SDS011;21661;50.794;-1.066;2022-08-19T11:36:15;8.95;;;2.20;;
35558;SDS011;21661;50.794;-1.066;2022-08-19T11:38:42;7.28;;;1.90;;
35558;SDS011;21661;50.794;-1.066;2022-08-19T11:41:09;10.10;;;2.78;;
35558;SDS011;21661;50.794;-1.066;2022-08-19T11:43:36;8.25;;;2.30;;
35558;SDS011;21661;50.794;-1.066;2022-08-19T11:46:05;6.22;;;2.03;;
35558;SDS011;21661;50.794;-1.066;2022-08-19T11:48:33;12.35;;;2.45;;
35558;SDS011;21661;50.794;-1.066;2022-08-19T11:51:02;8.85;;;2.13;;
35558;SDS011;21661;50.794;-1.066;2022-08-19T11:53:31;6.28;;;1.90;;
35558;SDS011;21661;50.794;-1.066;2022-08-19T11:55:58;6.90;;;2.08;;
35558;SDS011;21661;50.794;-1.066;2022-08-19T11:58:24;11.13;;;3.20;;
35558;SDS011;21661;50.794;-1.066;2022-08-19T12:00:50;12.82;;;2.80;;
35558;SDS011;21661;50.794;-1.066;2022-08-19T12:03:16;8.85;;;2.25;;
35558;SDS011;21661;50.794;-1.066;2022-08-19T12:05:43;11.07;;;2.58;;
35558;SDS011;21661;50.794;-1.066;2022-08-19T12:08:09;9.80;;;2.78;;
35558;SDS011;21661;50.794;-1.066;2022-08-19T12:10:36;7.43;;;2.88;;
35558;SDS011;21661;50.794;-1.066;2022-08-19T12:13:02;10.80;;;3.05;;
35558;SDS011;21661;50.794;-1.066;2022-08-19T12:15:28;9.13;;;2.92;;
35558;SDS011;21661;50.794;-1.066;2022-08-19T12:17:54;7.25;;;2.10;;
35558;SDS011;21661;50.794;-1.066;2022-08-19T12:20:21;10.45;;;2.63;;
35558;SDS011;21661;50.794;-1.066;2022-08-19T12:22:49;8.45;;;2.22;;
35558;SDS011;21661;50.794;-1.066;2022-08-19T12:25:16;16.98;;;3.33;;
35558;SDS011;21661;50.794;-1.066;2022-08-19T12:27:42;9.07;;;2.42;;
35558;SDS011;21661;50.794;-1.066;2022-08-19T12:30:09;13.02;;;2.35;;
35558;SDS011;21661;50.794;-1.066;2022-08-19T12:32:36;6.50;;;1.90;;
35558;SDS011;21661;50.794;-1.066;2022-08-19T12:35:02;11.57;;;2.20;;
35558;SDS011;21661;50.794;-1.066;2022-08-19T12:37:29;13.18;;;2.65;;
35558;SDS011;21661;50.794;-1.066;2022-08-19T12:39:56;9.60;;;2.45;;
35558;SDS011;21661;50.794;-1.066;2022-08-19T12:42:22;6.68;;;1.70;;
35558;SDS011;21661;50.794;-1.066;2022-08-19T12:44:48;9.68;;;2.50;;
35558;SDS011;21661;50.794;-1.066;2022-08-19T12:47:13;5.47;;;1.60;;
35558;SDS011;21661;50.794;-1.066;2022-08-19T12:49:39;6.68;;;2.10;;
35558;SDS011;21661;50.794;-1.066;2022-08-19T12:52:06;9.00;;;2.10;;
35558;SDS011;21661;50.794;-1.066;2022-08-19T12:54:34;6.47;;;1.75;;
35558;SDS011;21661;50.794;-1.066;2022-08-19T12:57:04;7.13;;;1.70;;
35558;SDS011;21661;50.794;-1.066;2022-08-19T12:59:32;9.98;;;2.08;;
35558;SDS011;21661;50.794;-1.066;2022-08-19T13:01:59;10.65;;;2.25;;
35558;SDS011;21661;50.794;-1.066;2022-08-19T13:04:25;7.85;;;2.60;;
35558;SDS011;21661;50.794;-1.066;2022-08-19T13:06:51;9.00;;;2.05;;
35558;SDS011;21661;50.794;-1.066;2022-08-19T13:09:17;10.45;;;2.10;;
35558;SDS011;21661;50.794;-1.066;2022-08-19T13:11:43;6.70;;;1.70;;
35558;SDS011;21661;50.794;-1.066;2022-08-19T13:14:09;8.02;;;2.45;;
35558;SDS011;21661;50.794;-1.066;2022-08-19T13:16:36;8.65;;;2.45;;
35558;SDS011;21661;50.794;-1.066;2022-08-19T13:19:03;9.52;;;2.47;;
35558;SDS011;21661;50.794;-1.066;2022-08-19T13:21:30;8.73;;;1.98;;
35558;SDS011;21661;50.794;-1.066;2022-08-19T13:23:56;12.57;;;2.20;;
35558;SDS011;21661;50.794;-1.066;2022-08-19T13:26:23;6.47;;;1.80;;
35558;SDS011;21661;50.794;-1.066;2022-08-19T13:28:49;8.98;;;2.25;;
35558;SDS011;21661;50.794;-1.066;2022-08-19T13:31:34;10.05;;;2.20;;
35558;SDS011;21661;50.794;-1.066;2022-08-19T13:34:25;7.82;;;2.03;;
35558;SDS011;21661;50.794;-1.066;2022-08-19T13:37:02;7.30;;;1.85;;
35558;SDS011;21661;50.794;-1.066;2022-08-19T13:39:31;7.40;;;1.77;;
35558;SDS011;21661;50.794;-1.066;2022-08-19T13:41:58;9.68;;;2.60;;
35558;SDS011;21661;50.794;-1.066;2022-08-19T13:44:25;4.25;;;1.65;;
35558;SDS011;21661;50.794;-1.066;2022-08-19T13:46:54;8.15;;;2.92;;
35558;SDS011;21661;50.794;-1.066;2022-08-19T13:49:25;8.52;;;2.08;;
35558;SDS011;21661;50.794;-1.066;2022-08-19T13:51:55;6.90;;;1.63;;
35558;SDS011;21661;50.794;-1.066;2022-08-19T13:54:20;6.97;;;1.95;;
35558;SDS011;21661;50.794;-1.066;2022-08-19T13:56:46;8.75;;;2.20;;
35558;SDS011;21661;50.794;-1.066;2022-08-19T13:59:12;5.53;;;1.98;;
35558;SDS011;21661;50.794;-1.066;2022-08-19T14:01:38;10.73;;;3.28;;
35558;SDS011;21661;50.794;-1.066;2022-08-19T14:04:05;10.05;;;3.22;;
35558;SDS011;21661;50.794;-1.066;2022-08-19T14:06:33;9.13;;;2.53;;
35558;SDS011;21661;50.794;-1.066;2022-08-19T14:08:59;8.23;;;2.03;;
35558;SDS011;21661;50.794;-1.066;2022-08-19T14:11:27;8.15;;;2.10;;
35558;SDS011;21661;50.794;-1.066;2022-08-19T14:13:53;8.07;;;2.05;;
35558;SDS011;21661;50.794;-1.066;2022-08-19T14:16:19;7.55;;;2.28;;
35558;SDS011;21661;50.794;-1.066;2022-08-19T14:18:46;5.05;;;1.35;;
35558;SDS011;21661;50.794;-1.066;2022-08-19T14:21:17;9.00;;;1.83;;
35558;SDS011;21661;50.794;-1.066;2022-08-19T14:23:45;12.02;;;2.65;;
35558;SDS011;21661;50.794;-1.066;2022-08-19T14:26:13;6.60;;;1.85;;
35558;SDS011;21661;50.794;-1.066;2022-08-19T14:28:41;11.18;;;2.03;;
35558;SDS011;21661;50.794;-1.066;2022-08-19T14:31:09;7.53;;;2.03;;
35558;SDS011;21661;50.794;-1.066;2022-08-19T14:33:36;4.85;;;1.52;;
35558;SDS011;21661;50.794;-1.066;2022-08-19T14:36:02;7.50;;;2.10;;
35558;SDS011;21661;50.794;-1.066;2022-08-19T14:38:28;5.40;;;1.95;;
35558;SDS011;21661;50.794;-1.066;2022-08-19T14:41:04;9.20;;;1.80;;
35558;SDS011;21661;50.794;-1.066;2022-08-19T14:43:33;9.88;;;2.40;;
35558;SDS011;21661;50.794;-1.066;2022-08-19T14:45:59;6.45;;;1.90;;
35558;SDS011;21661;50.794;-1.066;2022-08-19T14:48:25;7.35;;;1.70;;
35558;SDS011;21661;50.794;-1.066;2022-08-19T14:50:51;6.63;;;1.88;;
35558;SDS011;21661;50.794;-1.066;2022-08-19T14:53:17;6.20;;;1.70;;
35558;SDS011;21661;50.794;-1.066;2022-08-19T14:55:43;5.50;;;1.65;;
35558;SDS011;21661;50.794;-1.066;2022-08-19T14:58:10;7.10;;;1.85;;